Time;durP1;ratioP1;P1;durP2;ratioP2;P2;SDS_P1;SDS_P2;PMS_P1;PMS_P2;Temp;Humidity;BMP_temperature;BMP_pressure;BME280_temperature;BME280_humidity;BME280_pressure;Samples;Min_cycle;Max_cycle;Signal;HPM_P1;HPM_P2
2022/09/11 00:02:07;;;;;;;21.92;17.30;;;;;;;-145.67;100.00;66521.78;4938088;28;20043;-64
2022/09/11 00:04:33;;;;;;;21.70;16.85;;;;;;;-145.67;100.00;66521.78;4944889;28;20070;-64
2022/09/11 00:06:58;;;;;;;21.25;17.67;;;;;;;-145.67;100.00;66521.78;4943094;28;20043;-64
2022/09/11 00:09:26;;;;;;;22.58;19.10;;;;;;;-145.67;100.00;66521.78;4945020;28;20078;-64
2022/09/11 00:11:57;;;;;;;26.40;20.85;;;;;;;-145.67;100.00;66521.78;4943553;28;20096;-64
2022/09/11 00:14:25;;;;;;;25.38;19.95;;;;;;;-145.67;100.00;66521.78;4945473;28;20720;-63
2022/09/11 00:16:50;;;;;;;26.00;20.77;;;;;;;-145.67;100.00;66521.78;4922855;28;20534;-63
2022/09/11 00:19:18;;;;;;;23.00;19.27;;;;;;;-145.67;100.00;66521.78;4943461;28;20039;-64
2022/09/11 00:21:49;;;;;;;25.02;20.05;;;;;;;-145.67;100.00;66521.78;4943092;28;20405;-63
2022/09/11 00:24:14;;;;;;;23.98;19.88;;;;;;;-145.67;100.00;66521.78;4944121;28;20035;-64
2022/09/11 00:26:41;;;;;;;23.75;19.38;;;;;;;-145.67;100.00;66521.78;4922522;28;20287;-64
2022/09/11 00:29:09;;;;;;;22.83;18.83;;;;;;;-145.67;100.00;66521.78;4938867;28;20625;-64
2022/09/11 00:31:36;;;;;;;25.05;19.75;;;;;;;-145.67;100.00;66521.78;4944915;28;20141;-64
2022/09/11 00:34:02;;;;;;;22.75;17.48;;;;;;;-145.67;100.00;66521.78;4942680;28;20035;-64
2022/09/11 00:36:30;;;;;;;22.40;18.58;;;;;;;-145.67;100.00;66521.78;4926278;28;20138;-64
2022/09/11 00:38:56;;;;;;;24.58;18.90;;;;;;;-145.67;100.00;66521.78;4926903;28;20447;-64
2022/09/11 00:41:34;;;;;;;22.33;18.55;;;;;;;-145.67;100.00;66521.78;4942595;28;20909;-65
2022/09/11 00:44:01;;;;;;;23.85;19.02;;;;;;;-145.67;100.00;66521.78;4943355;28;20050;-64
2022/09/11 00:46:36;;;;;;;26.00;19.02;;;;;;;-145.67;100.00;66521.78;4942776;28;20130;-65
2022/09/11 00:49:10;;;;;;;27.80;20.67;;;;;;;-145.67;100.00;66521.78;4944093;28;20081;-64
2022/09/11 00:51:36;;;;;;;22.73;18.67;;;;;;;-145.67;100.00;66521.78;4922333;28;20415;-64
2022/09/11 00:54:05;;;;;;;25.80;20.45;;;;;;;-145.67;100.00;66521.78;4943886;28;20042;-64
2022/09/11 00:56:34;;;;;;;24.27;20.38;;;;;;;-145.67;100.00;66521.78;4943093;28;20051;-64
2022/09/11 00:59:00;;;;;;;24.65;19.33;;;;;;;-145.67;100.00;66521.78;4926966;28;20342;-64
2022/09/11 01:01:28;;;;;;;22.90;18.55;;;;;;;-145.67;100.00;66521.78;4936612;28;20055;-64
2022/09/11 01:03:54;;;;;;;22.85;17.95;;;;;;;-145.67;100.00;66521.78;4943383;28;20047;-64
2022/09/11 01:06:21;;;;;;;22.17;17.77;;;;;;;-145.67;100.00;66521.78;4917032;28;20058;-65
2022/09/11 01:08:47;;;;;;;23.60;19.42;;;;;;;-145.67;100.00;66521.78;4941544;28;20045;-65
2022/09/11 01:11:30;;;;;;;25.67;20.60;;;;;;;-145.67;100.00;66521.78;4943833;28;20082;-64
2022/09/11 01:14:08;;;;;;;27.20;20.05;;;;;;;-145.67;100.00;66521.78;4926388;28;20089;-64
2022/09/11 01:16:52;;;;;;;23.23;19.58;;;;;;;-145.67;100.00;66521.78;4943110;28;20038;-64
2022/09/11 01:19:30;;;;;;;25.38;20.38;;;;;;;-145.67;100.00;66521.78;4942723;28;20045;-64
2022/09/11 01:22:07;;;;;;;24.98;20.10;;;;;;;-145.67;100.00;66521.78;4943147;28;20042;-64
2022/09/11 01:24:53;;;;;;;26.45;20.02;;;;;;;-145.67;100.00;66521.78;4943347;28;20531;-64
2022/09/11 01:27:35;;;;;;;26.83;19.13;;;;;;;-145.67;100.00;66521.78;4941889;28;20073;-64
2022/09/11 01:30:06;;;;;;;24.30;19.67;;;;;;;-145.67;100.00;66521.78;4943724;28;20109;-64
2022/09/11 01:32:43;;;;;;;27.17;20.33;;;;;;;-145.67;100.00;66521.78;4943060;28;20042;-64
2022/09/11 01:35:17;;;;;;;30.02;22.00;;;;;;;-145.67;100.00;66521.78;4942262;28;20213;-64
2022/09/11 01:38:08;;;;;;;31.73;21.73;;;;;;;-145.67;100.00;66521.78;4941548;28;20070;-64
2022/09/11 01:40:44;;;;;;;24.48;18.13;;;;;;;-145.67;100.00;66521.78;4926811;28;20039;-64
2022/09/11 01:43:21;;;;;;;26.65;21.13;;;;;;;-145.67;100.00;66521.78;4926231;28;20399;-64
2022/09/11 01:45:49;;;;;;;29.10;22.15;;;;;;;-145.67;100.00;66521.78;4942112;28;20206;-64
2022/09/11 01:48:18;;;;;;;26.20;21.35;;;;;;;-145.67;100.00;66521.78;4937792;28;21497;-64
2022/09/11 01:50:45;;;;;;;29.73;22.50;;;;;;;-145.67;100.00;66521.78;4924703;28;20130;-64
2022/09/11 01:53:20;;;;;;;27.77;21.23;;;;;;;-145.67;100.00;66521.78;4935889;28;20571;-64
2022/09/11 01:55:56;;;;;;;25.52;20.95;;;;;;;-145.67;100.00;66521.78;4921668;28;21129;-64
2022/09/11 01:58:25;;;;;;;32.10;22.88;;;;;;;-145.67;100.00;66521.78;4926074;28;20054;-64
2022/09/11 02:00:55;;;;;;;26.17;20.77;;;;;;;-145.67;100.00;66521.78;4910073;28;20451;-65
2022/09/11 02:03:25;;;;;;;28.05;20.42;;;;;;;-145.67;100.00;66521.78;4941481;28;20627;-65
2022/09/11 02:05:57;;;;;;;29.92;21.45;;;;;;;-145.67;100.00;66521.78;4937628;28;20058;-65
2022/09/11 02:08:42;;;;;;;;;;;;;;;-145.67;100.00;66521.78;4921455;28;20089;-64
2022/09/11 02:11:11;;;;;;;23.27;17.48;;;;;;;-145.67;100.00;66521.78;4942484;28;19933;-65
2022/09/11 02:14:00;;;;;;;26.27;18.95;;;;;;;-145.67;100.00;66521.78;4940259;28;20039;-65
2022/09/11 02:16:36;;;;;;;21.38;18.40;;;;;;;-145.67;100.00;66521.78;4925842;28;20039;-65
2022/09/11 02:19:07;;;;;;;27.25;19.33;;;;;;;-145.67;100.00;66521.78;4942227;28;20467;-64
2022/09/11 02:21:36;;;;;;;24.25;18.63;;;;;;;-145.67;100.00;66521.78;4942167;28;20439;-64
2022/09/11 02:24:02;;;;;;;26.02;20.13;;;;;;;-145.67;100.00;66521.78;4920210;28;20034;-65
2022/09/11 02:26:29;;;;;;;26.98;19.85;;;;;;;-145.67;100.00;66521.78;4941649;28;20035;-64
2022/09/11 02:28:55;;;;;;;23.95;18.15;;;;;;;-145.67;100.00;66521.78;4920457;28;20129;-65
2022/09/11 02:31:21;;;;;;;26.98;19.20;;;;;;;-145.67;100.00;66521.78;4922161;28;20057;-64
2022/09/11 02:33:50;;;;;;;21.50;18.08;;;;;;;-145.67;100.00;66521.78;4940618;28;20075;-64
2022/09/11 02:36:30;;;;;;;22.08;17.75;;;;;;;-145.67;100.00;66521.78;4925079;28;20043;-64
2022/09/11 02:39:01;;;;;;;23.73;17.70;;;;;;;-145.67;100.00;66521.78;4942038;28;20062;-64
2022/09/11 02:41:37;;;;;;;24.55;18.80;;;;;;;-145.67;100.00;66521.78;4941521;28;20031;-64
2022/09/11 02:44:08;;;;;;;24.38;18.13;;;;;;;-145.67;100.00;66521.78;4942238;28;20444;-64
2022/09/11 02:46:58;;;;;;;25.25;18.35;;;;;;;-145.67;100.00;66521.78;4925104;28;20102;-65
2022/09/11 02:49:30;;;;;;;22.25;17.40;;;;;;;-145.67;100.00;66521.78;4941937;28;20546;-63
2022/09/11 02:52:16;;;;;;;23.02;18.48;;;;;;;-145.67;100.00;66521.78;4941475;28;20599;-64
2022/09/11 02:54:52;;;;;;;26.00;18.30;;;;;;;-145.67;100.00;66521.78;4924544;28;20070;-64
2022/09/11 02:57:33;;;;;;;26.10;20.25;;;;;;;-145.67;100.00;66521.78;4920072;28;20137;-64
2022/09/11 03:00:08;;;;;;;24.65;18.58;;;;;;;-145.67;100.00;66521.78;4928724;28;21920;-64
2022/09/11 03:02:39;;;;;;;22.20;17.98;;;;;;;-145.67;100.00;66521.78;4945797;28;20031;-64
2022/09/11 03:05:06;;;;;;;24.65;18.52;;;;;;;-145.67;100.00;66521.78;4928515;28;20126;-64
2022/09/11 03:07:35;;;;;;;25.13;19.20;;;;;;;-145.67;100.00;66521.78;4945609;28;20034;-64
2022/09/11 03:10:00;;;;;;;27.27;20.30;;;;;;;-145.67;100.00;66521.78;4908917;28;20081;-64
2022/09/11 03:12:28;;;;;;;23.33;19.25;;;;;;;-145.67;100.00;66521.78;4945017;28;20070;-64
2022/09/11 03:14:57;;;;;;;25.65;20.70;;;;;;;-145.67;100.00;66521.78;4911625;28;20089;-64
2022/09/11 03:17:24;;;;;;;30.80;21.80;;;;;;;-145.67;100.00;66521.78;4929295;28;20063;-64
2022/09/11 03:19:49;;;;;;;27.40;19.88;;;;;;;-145.67;100.00;66521.78;4928281;28;20342;-64
2022/09/11 03:22:15;;;;;;;27.00;21.45;;;;;;;-145.67;100.00;66521.78;4923193;28;20090;-64
2022/09/11 03:24:42;;;;;;;29.92;21.50;;;;;;;-145.67;100.00;66521.78;4923340;28;20038;-64
2022/09/11 03:27:08;;;;;;;28.02;22.02;;;;;;;-145.67;100.00;66521.78;4928997;28;20045;-65
2022/09/11 03:29:36;;;;;;;27.58;22.20;;;;;;;-145.67;100.00;66521.78;4923985;28;20710;-64
2022/09/11 03:32:02;;;;;;;29.30;22.30;;;;;;;-145.67;100.00;66521.78;4944727;28;20417;-65
2022/09/11 03:34:27;;;;;;;25.95;20.40;;;;;;;-145.67;100.00;66521.78;4907152;28;20041;-64
2022/09/11 03:36:53;;;;;;;24.77;19.73;;;;;;;-145.67;100.00;66521.78;4925512;28;20200;-65
2022/09/11 03:39:21;;;;;;;28.73;21.55;;;;;;;-145.67;100.00;66521.78;4944970;28;20058;-65
2022/09/11 03:41:50;;;;;;;28.75;21.83;;;;;;;-145.67;100.00;66521.78;4944068;28;20586;-65
2022/09/11 03:44:18;;;;;;;30.15;21.08;;;;;;;-145.67;100.00;66521.78;4944687;28;20035;-65
2022/09/11 03:46:43;;;;;;;28.42;20.90;;;;;;;-145.67;100.00;66521.78;4945500;28;20338;-64
2022/09/11 03:49:11;;;;;;;24.05;19.17;;;;;;;-145.67;100.00;66521.78;4924925;28;20113;-64
2022/09/11 03:51:38;;;;;;;25.15;18.85;;;;;;;-145.67;100.00;66521.78;4944295;28;20046;-65
2022/09/11 03:54:06;;;;;;;28.05;21.05;;;;;;;-145.67;100.00;66521.78;4928470;28;20160;-65
2022/09/11 03:56:32;;;;;;;29.67;20.90;;;;;;;-145.67;100.00;66521.78;4944292;28;20153;-65
2022/09/11 03:59:01;;;;;;;26.58;21.17;;;;;;;-145.67;100.00;66521.78;4923019;28;20034;-65
2022/09/11 04:01:27;;;;;;;25.48;20.25;;;;;;;-145.67;100.00;66521.78;4928476;28;20518;-65
2022/09/11 04:03:52;;;;;;;25.63;21.00;;;;;;;-145.67;100.00;66521.78;4943292;28;20043;-65
2022/09/11 04:06:19;;;;;;;28.00;19.15;;;;;;;-145.67;100.00;66521.78;4944298;28;20699;-65
2022/09/11 04:08:44;;;;;;;24.52;18.58;;;;;;;-145.67;100.00;66521.78;4909828;28;20043;-65
2022/09/11 04:11:10;;;;;;;28.50;20.08;;;;;;;-145.67;100.00;66521.78;4923150;28;20268;-66
2022/09/11 04:13:39;;;;;;;26.90;20.23;;;;;;;-145.67;100.00;66521.78;4926960;28;20035;-65
2022/09/11 04:16:17;;;;;;;22.85;17.95;;;;;;;-145.67;100.00;66521.78;4923577;28;20034;-65
2022/09/11 04:18:43;;;;;;;23.70;19.20;;;;;;;-145.67;100.00;66521.78;4944055;28;20035;-65
2022/09/11 04:21:11;;;;;;;23.52;18.75;;;;;;;-145.67;100.00;66521.78;4944685;28;23373;-64
2022/09/11 04:23:40;;;;;;;26.52;20.98;;;;;;;-145.67;100.00;66521.78;4944427;28;20247;-64
2022/09/11 04:26:19;;;;;;;26.40;19.80;;;;;;;-145.67;100.00;66521.78;4943684;28;20050;-64
2022/09/11 04:28:45;;;;;;;27.13;18.95;;;;;;;-145.67;100.00;66521.78;4943720;28;20045;-63
2022/09/11 04:31:16;;;;;;;25.30;18.75;;;;;;;-145.67;100.00;66521.78;4943605;28;20057;-65
2022/09/11 04:33:42;;;;;;;31.45;22.55;;;;;;;-145.67;100.00;66521.78;4943360;28;20117;-64
2022/09/11 04:36:11;;;;;;;30.10;22.05;;;;;;;-145.67;100.00;66521.78;4923046;28;20393;-64
2022/09/11 04:38:37;;;;;;;31.10;21.23;;;;;;;-145.67;100.00;66521.78;4943903;28;20560;-65
2022/09/11 04:41:05;;;;;;;23.50;18.70;;;;;;;-145.67;100.00;66521.78;4927764;28;20109;-65
2022/09/11 04:43:34;;;;;;;25.50;19.08;;;;;;;-145.67;100.00;66521.78;4921035;28;20027;-65
2022/09/11 04:46:06;;;;;;;22.70;17.33;;;;;;;-145.67;100.00;66521.78;4907424;28;20153;-65
2022/09/11 04:48:32;;;;;;;22.30;18.48;;;;;;;-145.67;100.00;66521.78;4942699;28;20118;-65
2022/09/11 04:51:02;;;;;;;23.40;18.38;;;;;;;-145.67;100.00;66521.78;4943247;28;20042;-65
2022/09/11 04:53:28;;;;;;;27.08;18.02;;;;;;;-145.67;100.00;66521.78;4943274;28;20055;-65
2022/09/11 04:56:03;;;;;;;26.52;18.25;;;;;;;-145.67;100.00;66521.78;4926652;28;20235;-64
2022/09/11 04:58:28;;;;;;;28.77;20.02;;;;;;;-145.67;100.00;66521.78;4943215;28;20034;-64
2022/09/11 05:00:54;;;;;;;26.67;20.30;;;;;;;-145.67;100.00;66521.78;4944287;28;20118;-64
2022/09/11 05:03:23;;;;;;;25.20;19.45;;;;;;;-145.67;100.00;66521.78;4927490;28;20287;-65
2022/09/11 05:05:49;;;;;;;23.80;19.05;;;;;;;-145.67;100.00;66521.78;4943289;28;20141;-65
2022/09/11 05:08:19;;;;;;;27.63;21.00;;;;;;;-145.67;100.00;66521.78;4922584;28;20038;-65
2022/09/11 05:10:46;;;;;;;29.17;20.20;;;;;;;-145.67;100.00;66521.78;4920935;28;20543;-65
2022/09/11 05:13:14;;;;;;;24.52;18.92;;;;;;;-145.67;100.00;66521.78;4943370;28;20157;-65
2022/09/11 05:15:40;;;;;;;23.27;18.17;;;;;;;-145.67;100.00;66521.78;4928801;28;20038;-65
2022/09/11 05:18:05;;;;;;;27.15;19.88;;;;;;;-145.67;100.00;66521.78;4943673;28;20512;-65
2022/09/11 05:20:31;;;;;;;25.70;19.58;;;;;;;-145.67;100.00;66521.78;4942520;28;20030;-65
2022/09/11 05:22:57;;;;;;;27.95;19.55;;;;;;;-145.67;100.00;66521.78;4943046;28;20039;-64
2022/09/11 05:25:24;;;;;;;25.17;18.42;;;;;;;-145.67;100.00;66521.78;4943175;28;20173;-64
2022/09/11 05:27:49;;;;;;;25.63;17.23;;;;;;;-145.67;100.00;66521.78;4926122;28;20050;-65
2022/09/11 05:30:15;;;;;;;25.13;18.08;;;;;;;-145.67;100.00;66521.78;4943536;28;20061;-64
2022/09/11 05:32:40;;;;;;;24.88;18.38;;;;;;;-145.67;100.00;66521.78;4926550;28;20037;-65
2022/09/11 05:35:06;;;;;;;28.90;19.38;;;;;;;-145.67;100.00;66521.78;4942045;28;20465;-64
2022/09/11 05:37:32;;;;;;;24.45;18.55;;;;;;;-145.67;100.00;66521.78;4924210;28;20358;-65
2022/09/11 05:39:59;;;;;;;27.13;19.25;;;;;;;-145.67;100.00;66521.78;4925947;28;20037;-64
2022/09/11 05:42:27;;;;;;;26.00;18.88;;;;;;;-145.67;100.00;66521.78;4942364;28;20050;-64
2022/09/11 05:44:53;;;;;;;27.10;20.40;;;;;;;-145.67;100.00;66521.78;4943254;28;20046;-64
2022/09/11 05:47:23;;;;;;;24.80;19.80;;;;;;;-145.67;100.00;66521.78;4942840;28;20031;-64
2022/09/11 05:49:48;;;;;;;25.27;17.63;;;;;;;-145.67;100.00;66521.78;4941567;28;20035;-65
2022/09/11 05:52:18;;;;;;;27.17;20.20;;;;;;;-145.67;100.00;66521.78;4942618;28;20043;-64
2022/09/11 05:54:44;;;;;;;28.05;19.67;;;;;;;-145.67;100.00;66521.78;4905850;28;20039;-64
2022/09/11 05:57:12;;;;;;;25.17;17.48;;;;;;;-145.67;100.00;66521.78;4925405;28;20050;-64
2022/09/11 05:59:40;;;;;;;29.45;19.70;;;;;;;-145.67;100.00;66521.78;4928776;28;20554;-64
2022/09/11 06:02:05;;;;;;;27.83;21.02;;;;;;;-145.67;100.00;66521.78;4925404;28;20072;-64
2022/09/11 06:04:32;;;;;;;27.27;20.85;;;;;;;-145.67;100.00;66521.78;4926690;28;20045;-64
2022/09/11 06:06:57;;;;;;;29.25;19.20;;;;;;;-145.67;100.00;66521.78;4941851;28;20463;-65
2022/09/11 06:09:30;;;;;;;26.45;19.08;;;;;;;-145.67;100.00;66521.78;4926145;28;20459;-65
2022/09/11 06:11:55;;;;;;;25.65;19.05;;;;;;;-145.67;100.00;66521.78;4940698;28;20174;-65
2022/09/11 06:14:24;;;;;;;25.15;18.52;;;;;;;-145.67;100.00;66521.78;4926989;28;20404;-65
2022/09/11 06:16:49;;;;;;;23.48;18.23;;;;;;;-145.67;100.00;66521.78;4941682;28;20039;-65
2022/09/11 06:19:17;;;;;;;28.25;19.13;;;;;;;-145.67;100.00;66521.78;4921643;28;20038;-65
2022/09/11 06:21:43;;;;;;;28.25;20.00;;;;;;;-145.67;100.00;66521.78;4942265;28;20432;-65
2022/09/11 06:24:11;;;;;;;24.40;19.60;;;;;;;-145.67;100.00;66521.78;4926242;28;20031;-65
2022/09/11 06:26:36;;;;;;;29.10;21.70;;;;;;;-145.67;100.00;66521.78;4919918;28;20039;-65
2022/09/11 06:29:04;;;;;;;25.83;20.50;;;;;;;-145.67;100.00;66521.78;4942369;28;20061;-65
2022/09/11 06:31:29;;;;;;;25.02;20.77;;;;;;;-145.67;100.00;66521.78;4943389;28;20053;-65
2022/09/11 06:33:55;;;;;;;26.45;21.27;;;;;;;-145.67;100.00;66521.78;4946276;28;20043;-65
2022/09/11 06:36:22;;;;;;;27.95;21.45;;;;;;;-145.67;100.00;66521.78;4946655;28;20039;-65
2022/09/11 06:38:55;;;;;;;30.30;22.63;;;;;;;-145.67;100.00;66521.78;4944651;28;20042;-65
2022/09/11 06:41:21;;;;;;;29.08;21.45;;;;;;;-145.67;100.00;66521.78;4925343;28;20485;-64
2022/09/11 06:43:48;;;;;;;27.70;23.48;;;;;;;-145.67;100.00;66521.78;4945920;28;21953;-65
2022/09/11 06:46:18;;;;;;;31.25;24.55;;;;;;;-145.67;100.00;66521.78;4924441;28;20350;-65
2022/09/11 06:48:45;;;;;;;31.73;26.05;;;;;;;-145.67;100.00;66521.78;4945192;28;20042;-64
2022/09/11 06:51:14;;;;;;;32.80;24.40;;;;;;;-145.67;100.00;66521.78;4925063;28;20057;-66
2022/09/11 06:53:40;;;;;;;30.63;24.33;;;;;;;-145.67;100.00;66521.78;4945468;28;20587;-65
2022/09/11 06:56:06;;;;;;;35.38;25.55;;;;;;;-145.67;100.00;66521.78;4923032;28;20555;-65
2022/09/11 06:58:34;;;;;;;30.98;24.38;;;;;;;-145.67;100.00;66521.78;4943951;28;20043;-65
2022/09/11 07:01:08;;;;;;;29.70;21.08;;;;;;;-145.67;100.00;66521.78;4946769;28;20077;-65
2022/09/11 07:03:33;;;;;;;29.42;17.00;;;;;;;-145.67;100.00;66521.78;4928671;28;20073;-63
2022/09/11 07:05:59;;;;;;;28.52;15.75;;;;;;;-145.67;100.00;66521.78;4945886;28;20106;-65
2022/09/11 07:08:25;;;;;;;26.25;15.60;;;;;;;-145.67;100.00;66521.78;4945901;28;20031;-64
2022/09/11 07:10:51;;;;;;;22.48;13.52;;;;;;;-145.67;100.00;66521.78;4945251;28;20055;-64
2022/09/11 07:13:16;;;;;;;20.27;11.93;;;;;;;-145.67;100.00;66521.78;4910439;28;20650;-63
2022/09/11 07:15:42;;;;;;;14.07;8.27;;;;;;;-145.67;100.00;66521.78;4946578;28;20035;-64
2022/09/11 07:18:07;;;;;;;7.85;6.72;;;;;;;-145.67;100.00;66521.78;4945091;28;20049;-64
2022/09/11 07:20:34;;;;;;;10.80;7.82;;;;;;;-145.67;100.00;66521.78;4943958;28;20034;-64
2022/09/11 07:22:59;;;;;;;11.23;6.03;;;;;;;-145.67;100.00;66521.78;4926989;28;20043;-64
2022/09/11 07:25:25;;;;;;;11.38;5.30;;;;;;;-145.67;100.00;66521.78;4923534;28;20456;-64
2022/09/11 07:27:53;;;;;;;9.73;5.00;;;;;;;-145.67;100.00;66521.78;4944395;28;20046;-64
2022/09/11 07:30:19;;;;;;;6.68;4.43;;;;;;;-145.67;100.00;66521.78;4932333;28;20039;-64
2022/09/11 07:32:45;;;;;;;8.38;4.63;;;;;;;-145.67;100.00;66521.78;4945596;28;20658;-64
2022/09/11 07:35:15;;;;;;;8.32;3.40;;;;;;;-145.67;100.00;66521.78;4931208;28;20318;-64
2022/09/11 07:37:40;;;;;;;5.53;3.03;;;;;;;-145.67;100.00;66521.78;4928063;28;20388;-64
2022/09/11 07:40:06;;;;;;;5.60;2.90;;;;;;;-145.67;100.00;66521.78;4945651;28;20081;-64
2022/09/11 07:42:32;;;;;;;7.57;2.88;;;;;;;-145.67;100.00;66521.78;4944191;28;20035;-64
2022/09/11 07:44:58;;;;;;;6.40;3.13;;;;;;;-145.67;100.00;66521.78;4927816;28;20045;-65
2022/09/11 07:47:23;;;;;;;6.13;2.85;;;;;;;-145.67;100.00;66521.78;4945360;28;20042;-64
2022/09/11 07:49:51;;;;;;;7.10;2.90;;;;;;;-145.67;100.00;66521.78;4929014;28;20074;-64
2022/09/11 07:52:21;;;;;;;8.07;3.28;;;;;;;-145.67;100.00;66521.78;4923432;28;20138;-64
2022/09/11 07:54:49;;;;;;;7.40;3.15;;;;;;;-145.67;100.00;66521.78;4944615;28;21906;-64
2022/09/11 07:57:14;;;;;;;5.55;3.10;;;;;;;-145.67;100.00;66521.78;4943672;28;20643;-64
2022/09/11 07:59:42;;;;;;;7.30;3.33;;;;;;;-145.67;100.00;121153.06;4945256;28;20182;-64
2022/09/11 08:02:08;;;;;;;6.43;4.25;;;;;;;-145.67;100.00;66521.78;4945262;28;20069;-64
2022/09/11 08:04:33;;;;;;;9.80;4.40;;;;;;;-145.67;100.00;66521.78;4944578;28;20608;-64
2022/09/11 08:06:58;;;;;;;9.63;4.75;;;;;;;-145.67;100.00;66521.78;4944696;28;20050;-64
2022/09/11 08:09:25;;;;;;;6.50;4.72;;;;;;;-145.67;100.00;66521.78;4945501;28;20457;-63
2022/09/11 08:11:52;;;;;;;7.28;4.63;;;;;;;-145.67;100.00;66521.78;4943203;28;20216;-63
2022/09/11 08:14:17;;;;;;;9.88;5.60;;;;;;;-145.67;100.00;66521.78;4928432;28;20117;-63
2022/09/11 08:16:43;;;;;;;13.43;9.23;;;;;;;-145.67;100.00;66521.78;4944523;28;20497;-63
2022/09/11 08:19:15;;;;;;;13.85;8.27;;;;;;;-145.67;100.00;66521.78;4923297;28;20034;-63
2022/09/11 08:21:43;;;;;;;14.73;7.97;;;;;;;-145.67;100.00;66521.78;4926862;28;21960;-64
2022/09/11 08:24:11;;;;;;;8.63;6.40;;;;;;;-145.67;100.00;66521.78;4923016;28;20042;-63
2022/09/11 08:26:39;;;;;;;7.72;5.85;;;;;;;-145.67;100.00;66521.78;4943927;28;20035;-64
2022/09/11 08:29:09;;;;;;;12.57;5.53;;;;;;;-145.67;100.00;66521.78;4942693;28;21837;-64
2022/09/11 08:31:37;;;;;;;7.25;5.00;;;;;;;-145.67;100.00;66521.78;4944434;28;20397;-64
2022/09/11 08:34:02;;;;;;;8.32;4.35;;;;;;;-145.67;100.00;66521.78;4923276;28;20038;-65
2022/09/11 08:36:32;;;;;;;7.70;4.03;;;;;;;-145.67;100.00;66521.78;4943699;28;20070;-64
2022/09/11 08:39:00;;;;;;;7.78;4.15;;;;;;;-145.67;100.00;66521.78;4943539;28;20039;-63
2022/09/11 08:41:39;;;;;;;7.30;3.65;;;;;;;-145.67;100.00;66521.78;4944434;28;20039;-64
2022/09/11 08:44:14;;;;;;;7.05;3.08;;;;;;;-145.67;100.00;66521.78;4943211;28;20547;-64
2022/09/11 08:46:43;;;;;;;4.63;2.78;;;;;;;-145.67;100.00;66521.78;4944372;28;20039;-63
2022/09/11 08:49:24;;;;;;;5.78;2.90;;;;;;;-145.67;100.00;66521.78;4926995;28;20431;-64
2022/09/11 08:51:54;;;;;;;10.18;3.30;;;;;;;-145.67;100.00;66521.78;4942561;28;20050;-64
2022/09/11 08:54:26;;;;;;;4.55;2.60;;;;;;;-145.67;100.00;66521.78;4942729;28;20054;-65
2022/09/11 08:56:56;;;;;;;7.80;3.10;;;;;;;-145.67;100.00;66521.78;4920696;28;20399;-65
2022/09/11 08:59:41;;;;;;;5.53;2.90;;;;;;;-145.67;100.00;66521.78;4919347;28;20114;-65
2022/09/11 09:02:40;;;;;;;6.22;3.25;;;;;;;-145.67;100.00;66521.78;4925875;28;20400;-65
2022/09/11 09:05:24;;;;;;;5.82;3.10;;;;;;;-145.67;100.00;66521.78;4919813;28;20038;-64
2022/09/11 09:08:18;;;;;;;6.82;2.80;;;;;;;-145.67;100.00;66521.78;4918415;28;20039;-65
2022/09/11 09:10:46;;;;;;;5.60;2.72;;;;;;;-145.67;100.00;66521.78;4939319;28;21848;-64
2022/09/11 09:13:48;;;;;;;4.97;2.80;;;;;;;-145.67;100.00;66521.78;4924570;28;20043;-63
2022/09/11 09:16:51;;;;;;;6.53;3.10;;;;;;;-145.67;100.00;66521.78;4925108;28;20297;-63
2022/09/11 09:19:30;;;;;;;6.97;3.30;;;;;;;-145.67;100.00;66521.78;4906487;28;20500;-64
2022/09/11 09:22:09;;;;;;;6.50;3.20;;;;;;;-145.67;100.00;66521.78;4924027;28;20544;-63
2022/09/11 09:24:42;;;;;;;8.45;3.30;;;;;;;-145.67;100.00;66521.78;4903942;28;20039;-63
2022/09/11 09:27:14;;;;;;;6.90;3.55;;;;;;;-145.67;100.00;66521.78;4937758;28;20980;-65
2022/09/11 09:29:40;;;;;;;10.80;3.67;;;;;;;-145.67;100.00;66521.78;4925028;28;20496;-64
2022/09/11 09:32:19;;;;;;;6.45;3.63;;;;;;;-145.67;100.00;66521.78;4939044;28;20047;-65
2022/09/11 09:34:53;;;;;;;9.02;3.97;;;;;;;-145.67;100.00;66521.78;4938586;28;20031;-64
2022/09/11 09:37:22;;;;;;;8.02;3.70;;;;;;;-145.67;100.00;66521.78;4938799;28;20035;-65
2022/09/11 09:39:48;;;;;;;10.27;3.60;;;;;;;-145.67;100.00;66521.78;4924412;28;20295;-64
2022/09/11 09:42:35;;;;;;;10.05;4.32;;;;;;;-145.67;100.00;66521.78;4939069;28;20035;-64
2022/09/11 09:45:26;;;;;;;10.20;3.90;;;;;;;-145.67;100.00;66521.78;4925197;28;20133;-64
2022/09/11 09:47:52;;;;;;;8.35;3.83;;;;;;;-145.67;100.00;66521.78;4924140;28;20127;-65
2022/09/11 09:50:19;;;;;;;5.93;4.45;;;;;;;-145.67;100.00;66521.78;4923362;28;20375;-64
2022/09/11 09:52:45;;;;;;;9.07;4.20;;;;;;;-145.67;100.00;66521.78;4938684;28;20500;-64
2022/09/11 09:55:16;;;;;;;9.38;3.97;;;;;;;-145.67;100.00;66521.78;4924831;28;20440;-64
2022/09/11 09:57:42;;;;;;;6.25;3.72;;;;;;;-145.67;100.00;66521.78;4922043;28;20058;-64
2022/09/11 10:00:08;;;;;;;7.88;4.03;;;;;;;-145.67;100.00;66521.78;4924992;28;20129;-64
2022/09/11 10:02:56;;;;;;;6.68;4.13;;;;;;;-145.67;100.00;66521.78;4924665;28;20035;-64
2022/09/11 10:05:39;;;;;;;7.03;4.10;;;;;;;-145.67;100.00;66521.78;4924340;28;20047;-64
2022/09/11 10:08:06;;;;;;;6.13;4.20;;;;;;;-145.67;100.00;66521.78;4917118;28;20047;-65
2022/09/11 10:10:35;;;;;;;9.63;4.45;;;;;;;-145.67;100.00;66521.78;4938627;28;20439;-64
2022/09/11 10:13:23;;;;;;;8.10;4.00;;;;;;;-145.67;100.00;66521.78;4918340;28;20090;-63
2022/09/11 10:15:52;;;;;;;5.90;3.75;;;;;;;-145.67;100.00;66521.78;4918162;28;20095;-63
2022/09/11 10:18:25;;;;;;;7.22;3.75;;;;;;;-145.67;100.00;66521.78;4918459;28;20032;-63
2022/09/11 10:20:50;;;;;;;8.60;3.55;;;;;;;-145.67;100.00;66521.78;4924332;28;20031;-63
2022/09/11 10:23:24;;;;;;;6.95;3.20;;;;;;;-145.67;100.00;66521.78;4938329;28;20055;-64
2022/09/11 10:25:52;;;;;;;6.85;3.20;;;;;;;-145.67;100.00;66521.78;4923345;28;20042;-65
2022/09/11 10:28:30;;;;;;;7.10;3.35;;;;;;;-145.67;100.00;66521.78;4938436;28;20058;-64
2022/09/11 10:31:01;;;;;;;5.38;2.90;;;;;;;-145.67;100.00;66521.78;4937201;28;20070;-65
2022/09/11 10:33:35;;;;;;;6.78;2.75;;;;;;;-145.67;100.00;66521.78;4938202;28;22496;-64
2022/09/11 10:36:07;;;;;;;7.38;2.75;;;;;;;-145.67;100.00;66521.78;4938363;28;20090;-65
2022/09/11 10:38:43;;;;;;;4.88;2.30;;;;;;;-145.67;100.00;66521.78;4917630;28;20382;-64
2022/09/11 10:41:14;;;;;;;5.82;2.70;;;;;;;-145.67;100.00;66521.78;4924168;28;20818;-65
2022/09/11 10:43:55;;;;;;;6.22;2.80;;;;;;;-145.67;100.00;66521.78;4923903;28;20974;-65
2022/09/11 10:46:36;;;;;;;4.60;2.75;;;;;;;-145.67;100.00;66521.78;4919792;28;20370;-65
2022/09/11 10:49:01;;;;;;;7.97;2.70;;;;;;;-145.67;100.00;66521.78;4923969;28;20062;-65
2022/09/11 10:51:32;;;;;;;7.00;2.67;;;;;;;-145.67;100.00;66521.78;4923598;28;20753;-65
2022/09/11 10:54:09;;;;;;;5.33;2.60;;;;;;;-145.67;100.00;66521.78;4922630;28;20433;-65
2022/09/11 10:56:41;;;;;;;5.28;2.50;;;;;;;-145.67;100.00;66521.78;4923316;28;20646;-65
2022/09/11 10:59:12;;;;;;;5.57;2.60;;;;;;;-145.67;100.00;66521.78;4937951;28;20051;-65
2022/09/11 11:01:37;;;;;;;7.30;2.63;;;;;;;-145.67;100.00;66521.78;4906936;28;20465;-65
2022/09/11 11:04:09;;;;;;;6.15;2.67;;;;;;;-145.67;100.00;66521.78;4937607;28;20040;-65
2022/09/11 11:06:59;;;;;;;4.95;2.13;;;;;;;-145.67;100.00;66521.78;4922470;28;20183;-64
2022/09/11 11:09:53;;;;;;;6.35;2.33;;;;;;;-145.67;100.00;66521.78;4937971;28;20081;-65
2022/09/11 11:12:53;;;;;;;4.90;2.28;;;;;;;-145.67;100.00;66521.78;4923870;28;20576;-64
2022/09/11 11:15:33;;;;;;;6.70;2.42;;;;;;;-145.67;100.00;66521.78;4904676;28;20097;-63